Vernon, Illinois
Current Conditions -  °F | °C
As of 11:55 AM on Monday 24 Nov 2014 (Local Time) from KENL Reporting Station
Overcast Overcast  
Wind Chill: 30°   Ceiling: 3600
Heat Index: 40°   Visibility: 10mi
Dew Point: 29°   Wind: 20mph
Humidity: 67%   Direction: 250°WSW
Pressure: 29.69"   Gusts: 28mph
Location:  38.8°N, 89.09°W
Report Text: KENL 241755Z AUTO 25017G24KT 10SM OVC036 04/M01 A2969 RMK AO2 T00421015 10049 20032
Loading
Personal Weather Stations






























Interactive Weather Map New forecast layout! Learn more

10-Day Weather Forecast

Advertisements
Track Severe Weather on mobile